Portada
METAR-TAF:

METAR-TAF

Aeroports :

Lanzhou, Xina

latitud: 36-02N, longitud: 103-52E, altitud: 1518 m

Observació

L'informe es va fer fa 37 minuts, a les 19:00 UTC
Vent 4 kt del Nord/Nord-Oest
Temperatura 8°C
Humitat 71%
Pressió 1019 hPa
Visibilitat 10 km o més
sense núvols per sota de 1500 mi sense presència de cumulonimbus.

METAR: ZLLL 011900Z 33002MPS CAVOK 08/03 Q1019 NOSIG

Hora: 03:37 (19:37 UTC)

Pronòstic

L'informe es va fer fa 4 hores i 36 minuts, a les 15:01 UTC
Pronòstic vàlid del 01 a les 18 UTC al 02 a les 18 UTC
Vent 6 kt del Nord
Visibilitat: 6000 m
Temporalment
l' 02 a les 06 UTC al 02 a les 12 UTC
Núvols disperses a una alçada de 2300 ft
Escasses núvols a una alçada de 3300 ft, Cumulonimbus.

TAF: ZLLL 011501Z 0118/0218 35003MPS 6000 NSC TX26/0208Z TN10/0122Z TEMPO 0206/0212 SCT023 FEW033CB

Observacions i pronòstics meteorològics de més de 4000 aeroports (METAR i TAF).

Les estacions disponibles són els punts grocs i vermells al mapa.

Posi el ratolí al punt desitjat per veure el nom de l'estació.

Feu clic per veure les observacions i els pronòstics meteorològics.

Per canviar el mapa: feu clic els botons verds amb una creu de color negre per apropar; al botó verd amb un guió per allunyar la imatge; o en les fletxes verdes per a mapes adjacents.


METAR-TAF: